Main page
METAR-TAF:

METAR-TAF

Airports :

King Hussein International Airport

Aqaba, Jordan

latitude: 29-38N, longitude: 035-01E, elevation: 53 m

Current weather observation

The report was made 55 minutes ago, at 17:00 UTC
Wind 14 kt from the North/Northwest
Temperature 36°C
Humidity 22%
Pressure 1009 hPa
Visibility 10 km or more
no clouds below 1500 m and no cumulonimbus

METAR: OJAQ 221700Z 34014KT CAVOK 36/11 Q1009 NOSIG

Time: 20:55 (17:55 UTC)

Forecast

The report was made 1 hour and 16 minutes ago, at 16:39 UTC
Forecast valid from 22 at 18 UTC to 23 at 24 UTC
Wind 10 kt from the North
Visibility: 7000 m
Probability 30% :
Temporary
from 23 at 12 UTC to 23 at 18 UTC
Wind 16 kt from the North
Visibility: 5000 m
Blowing dust

TAF: OJAQ 221639Z 2218/2324 36010KT 7000 NSC PROB30 TEMPO 2312/2318 36016KT 5000 BLDU

Weather observations and forecasts of more than 4000 airports (METAR and TAF reports).

The available stations are represented by yellow and red dots on the map.

Hover mouse over dot to see the name of the station.

Then click to see weather observations and forecasts.

To change the map : click on the green buttons with a black cross to zoom in, on the green button with a dash to zoom out, or on the green arrows for adjacent maps.


METAR-TAF: